sensor_id;sensor_type;location;lat;lon;timestamp;temperature;humidity
66740;DHT22;53653;52.188;8.602;2023-06-10T00:02:07;18.79;69.84
66740;DHT22;53653;52.188;8.602;2023-06-10T00:04:34;18.75;70.08
66740;DHT22;53653;52.188;8.602;2023-06-10T00:07:03;18.74;70.17
66740;DHT22;53653;52.188;8.602;2023-06-10T00:09:29;18.69;70.16
66740;DHT22;53653;52.188;8.602;2023-06-10T00:11:55;18.71;70.15
66740;DHT22;53653;52.188;8.602;2023-06-10T00:14:20;18.71;70.19
66740;DHT22;53653;52.188;8.602;2023-06-10T00:16:46;18.64;70.30
66740;DHT22;53653;52.188;8.602;2023-06-10T00:19:12;18.58;70.57
66740;DHT22;53653;52.188;8.602;2023-06-10T00:21:39;18.57;70.69
66740;DHT22;53653;52.188;8.602;2023-06-10T00:24:09;18.50;70.85
66740;DHT22;53653;52.188;8.602;2023-06-10T00:26:40;18.38;71.20
66740;DHT22;53653;52.188;8.602;2023-06-10T00:29:06;18.38;71.26
66740;DHT22;53653;52.188;8.602;2023-06-10T00:31:34;18.32;71.51
66740;DHT22;53653;52.188;8.602;2023-06-10T00:34:00;18.30;71.49
66740;DHT22;53653;52.188;8.602;2023-06-10T00:36:26;18.23;71.85
66740;DHT22;53653;52.188;8.602;2023-06-10T00:38:52;18.18;71.93
66740;DHT22;53653;52.188;8.602;2023-06-10T00:41:18;18.17;72.05
66740;DHT22;53653;52.188;8.602;2023-06-10T00:43:44;18.12;72.09
66740;DHT22;53653;52.188;8.602;2023-06-10T00:46:13;18.09;72.10
66740;DHT22;53653;52.188;8.602;2023-06-10T00:48:41;18.04;72.17
66740;DHT22;53653;52.188;8.602;2023-06-10T00:51:08;18.02;72.16
66740;DHT22;53653;52.188;8.602;2023-06-10T00:53:39;18.02;72.19
66740;DHT22;53653;52.188;8.602;2023-06-10T00:56:06;17.89;72.50
66740;DHT22;53653;52.188;8.602;2023-06-10T00:58:32;17.83;72.59
66740;DHT22;53653;52.188;8.602;2023-06-10T01:00:57;17.83;72.70
66740;DHT22;53653;52.188;8.602;2023-06-10T01:03:26;17.82;72.72
66740;DHT22;53653;52.188;8.602;2023-06-10T01:09:13;17.79;72.72
66740;DHT22;53653;52.188;8.602;2023-06-10T01:11:52;17.76;72.85
66740;DHT22;53653;52.188;8.602;2023-06-10T01:14:19;17.65;73.13
66740;DHT22;53653;52.188;8.602;2023-06-10T01:16:46;17.61;73.31
66740;DHT22;53653;52.188;8.602;2023-06-10T01:19:12;17.55;73.38
66740;DHT22;53653;52.188;8.602;2023-06-10T01:21:38;17.55;73.38
66740;DHT22;53653;52.188;8.602;2023-06-10T01:24:05;17.45;73.57
66740;DHT22;53653;52.188;8.602;2023-06-10T01:26:34;17.39;73.69
66740;DHT22;53653;52.188;8.602;2023-06-10T01:31:38;17.32;73.89
66740;DHT22;53653;52.188;8.602;2023-06-10T01:34:10;17.34;73.71
66740;DHT22;53653;52.188;8.602;2023-06-10T01:36:37;17.37;73.49
66740;DHT22;53653;52.188;8.602;2023-06-10T01:39:04;17.39;73.44
66740;DHT22;53653;52.188;8.602;2023-06-10T01:41:31;17.41;73.42
66740;DHT22;53653;52.188;8.602;2023-06-10T01:43:58;17.31;73.43
66740;DHT22;53653;52.188;8.602;2023-06-10T01:46:24;17.27;73.43
66740;DHT22;53653;52.188;8.602;2023-06-10T01:48:50;17.24;73.43
66740;DHT22;53653;52.188;8.602;2023-06-10T01:51:16;17.24;73.44
66740;DHT22;53653;52.188;8.602;2023-06-10T01:53:41;17.18;73.51
66740;DHT22;53653;52.188;8.602;2023-06-10T01:56:07;17.07;73.82
66740;DHT22;53653;52.188;8.602;2023-06-10T01:58:33;17.07;73.59
66740;DHT22;53653;52.188;8.602;2023-06-10T02:00:58;17.02;73.66
66740;DHT22;53653;52.188;8.602;2023-06-10T02:03:24;17.02;73.66
66740;DHT22;53653;52.188;8.602;2023-06-10T02:05:50;17.08;73.25
66740;DHT22;53653;52.188;8.602;2023-06-10T02:08:15;17.20;73.05
66740;DHT22;53653;52.188;8.602;2023-06-10T02:10:41;17.24;72.73
66740;DHT22;53653;52.188;8.602;2023-06-10T02:13:07;17.30;72.60
66740;DHT22;53653;52.188;8.602;2023-06-10T02:15:33;17.31;72.33
66740;DHT22;53653;52.188;8.602;2023-06-10T02:17:59;17.38;71.76
66740;DHT22;53653;52.188;8.602;2023-06-10T02:20:25;17.30;71.83
66740;DHT22;53653;52.188;8.602;2023-06-10T02:22:50;17.24;71.18
66740;DHT22;53653;52.188;8.602;2023-06-10T02:25:16;16.94;71.24
66740;DHT22;53653;52.188;8.602;2023-06-10T02:27:41;16.79;71.63
66740;DHT22;53653;52.188;8.602;2023-06-10T02:30:08;16.65;71.74
66740;DHT22;53653;52.188;8.602;2023-06-10T02:32:36;16.58;71.98
66740;DHT22;53653;52.188;8.602;2023-06-10T02:35:02;16.52;72.05
66740;DHT22;53653;52.188;8.602;2023-06-10T02:37:29;16.49;71.92
66740;DHT22;53653;52.188;8.602;2023-06-10T02:39:55;16.45;71.98
66740;DHT22;53653;52.188;8.602;2023-06-10T02:42:22;16.35;72.14
66740;DHT22;53653;52.188;8.602;2023-06-10T02:44:48;16.29;72.37
66740;DHT22;53653;52.188;8.602;2023-06-10T02:47:21;16.11;72.65
66740;DHT22;53653;52.188;8.602;2023-06-10T02:49:46;16.07;72.43
66740;DHT22;53653;52.188;8.602;2023-06-10T02:52:12;15.97;73.02
66740;DHT22;53653;52.188;8.602;2023-06-10T02:54:38;15.90;73.06
66740;DHT22;53653;52.188;8.602;2023-06-10T02:57:07;15.87;73.19
66740;DHT22;53653;52.188;8.602;2023-06-10T02:59:33;15.83;73.31
66740;DHT22;53653;52.188;8.602;2023-06-10T03:01:59;15.81;73.31
66740;DHT22;53653;52.188;8.602;2023-06-10T03:04:27;15.77;73.39
66740;DHT22;53653;52.188;8.602;2023-06-10T03:07:01;15.76;73.20
66740;DHT22;53653;52.188;8.602;2023-06-10T03:09:32;15.76;73.04
66740;DHT22;53653;52.188;8.602;2023-06-10T03:12:00;15.70;73.11
66740;DHT22;53653;52.188;8.602;2023-06-10T03:14:29;15.63;73.39
66740;DHT22;53653;52.188;8.602;2023-06-10T03:16:55;15.69;73.12
66740;DHT22;53653;52.188;8.602;2023-06-10T03:19:23;15.60;73.33
66740;DHT22;53653;52.188;8.602;2023-06-10T03:22:07;15.62;73.35
66740;DHT22;53653;52.188;8.602;2023-06-10T03:24:35;15.56;73.43
66740;DHT22;53653;52.188;8.602;2023-06-10T03:27:02;15.53;73.66
66740;DHT22;53653;52.188;8.602;2023-06-10T03:29:30;15.54;73.68
66740;DHT22;53653;52.188;8.602;2023-06-10T03:31:56;15.54;73.47
66740;DHT22;53653;52.188;8.602;2023-06-10T03:34:23;15.46;73.93
66740;DHT22;53653;52.188;8.602;2023-06-10T03:36:49;15.40;74.09
66740;DHT22;53653;52.188;8.602;2023-06-10T03:39:16;15.43;74.17
66740;DHT22;53653;52.188;8.602;2023-06-10T03:41:41;15.42;74.28
66740;DHT22;53653;52.188;8.602;2023-06-10T03:44:09;15.46;74.09
66740;DHT22;53653;52.188;8.602;2023-06-10T03:46:35;15.43;74.36
66740;DHT22;53653;52.188;8.602;2023-06-10T03:49:02;15.31;74.85
66740;DHT22;53653;52.188;8.602;2023-06-10T03:51:29;15.35;74.69
66740;DHT22;53653;52.188;8.602;2023-06-10T03:53:55;15.38;74.66
66740;DHT22;53653;52.188;8.602;2023-06-10T03:56:20;15.31;74.92
66740;DHT22;53653;52.188;8.602;2023-06-10T03:58:46;15.29;75.22
66740;DHT22;53653;52.188;8.602;2023-06-10T04:01:12;15.35;75.44
66740;DHT22;53653;52.188;8.602;2023-06-10T04:03:38;15.71;74.30
66740;DHT22;53653;52.188;8.602;2023-06-10T04:06:05;16.08;73.13
66740;DHT22;53653;52.188;8.602;2023-06-10T04:08:30;16.25;72.68
66740;DHT22;53653;52.188;8.602;2023-06-10T04:10:59;16.22;72.97
66740;DHT22;53653;52.188;8.602;2023-06-10T04:13:26;16.47;72.31
66740;DHT22;53653;52.188;8.602;2023-06-10T04:15:55;16.53;71.88
66740;DHT22;53653;52.188;8.602;2023-06-10T04:18:21;16.62;71.86
66740;DHT22;53653;52.188;8.602;2023-06-10T04:20:48;16.45;72.46
66740;DHT22;53653;52.188;8.602;2023-06-10T04:23:13;16.25;73.13
66740;DHT22;53653;52.188;8.602;2023-06-10T04:25:41;16.10;73.88
66740;DHT22;53653;52.188;8.602;2023-06-10T04:28:08;15.89;74.71
66740;DHT22;53653;52.188;8.602;2023-06-10T04:30:35;15.84;75.03
66740;DHT22;53653;52.188;8.602;2023-06-10T04:33:00;15.81;75.18
66740;DHT22;53653;52.188;8.602;2023-06-10T04:35:26;15.66;75.88
66740;DHT22;53653;52.188;8.602;2023-06-10T04:37:54;15.60;76.24
66740;DHT22;53653;52.188;8.602;2023-06-10T04:40:20;15.66;76.20
66740;DHT22;53653;52.188;8.602;2023-06-10T04:42:46;15.77;75.92
66740;DHT22;53653;52.188;8.602;2023-06-10T04:45:13;15.80;75.57
66740;DHT22;53653;52.188;8.602;2023-06-10T04:47:39;15.76;75.96
66740;DHT22;53653;52.188;8.602;2023-06-10T04:50:06;15.96;75.36
66740;DHT22;53653;52.188;8.602;2023-06-10T04:52:32;15.93;75.68
66740;DHT22;53653;52.188;8.602;2023-06-10T04:54:59;16.11;75.42
66740;DHT22;53653;52.188;8.602;2023-06-10T04:57:24;16.14;75.27
66740;DHT22;53653;52.188;8.602;2023-06-10T04:59:52;16.11;75.31
66740;DHT22;53653;52.188;8.602;2023-06-10T05:02:18;16.25;75.21
66740;DHT22;53653;52.188;8.602;2023-06-10T05:04:43;16.08;75.42
66740;DHT22;53653;52.188;8.602;2023-06-10T05:07:09;16.10;75.63
66740;DHT22;53653;52.188;8.602;2023-06-10T05:09:35;16.29;74.96
66740;DHT22;53653;52.188;8.602;2023-06-10T05:12:01;16.31;75.18
66740;DHT22;53653;52.188;8.602;2023-06-10T05:14:27;16.51;74.79
66740;DHT22;53653;52.188;8.602;2023-06-10T05:16:53;16.59;74.51
66740;DHT22;53653;52.188;8.602;2023-06-10T05:19:18;16.58;74.22
66740;DHT22;53653;52.188;8.602;2023-06-10T05:21:45;16.77;74.24
66740;DHT22;53653;52.188;8.602;2023-06-10T05:24:11;16.81;73.85
66740;DHT22;53653;52.188;8.602;2023-06-10T05:26:36;16.70;74.06
66740;DHT22;53653;52.188;8.602;2023-06-10T05:29:07;16.65;74.38
66740;DHT22;53653;52.188;8.602;2023-06-10T05:31:34;16.96;73.78
66740;DHT22;53653;52.188;8.602;2023-06-10T05:34:00;16.69;73.98
66740;DHT22;53653;52.188;8.602;2023-06-10T05:36:25;16.89;73.22
66740;DHT22;53653;52.188;8.602;2023-06-10T05:38:52;17.10;72.73
66740;DHT22;53653;52.188;8.602;2023-06-10T05:41:17;17.26;72.55
66740;DHT22;53653;52.188;8.602;2023-06-10T05:43:43;17.27;71.61
66740;DHT22;53653;52.188;8.602;2023-06-10T05:46:08;17.16;72.12
66740;DHT22;53653;52.188;8.602;2023-06-10T05:48:34;17.23;72.15
66740;DHT22;53653;52.188;8.602;2023-06-10T05:50:59;17.11;72.53
66740;DHT22;53653;52.188;8.602;2023-06-10T05:53:25;17.18;72.05
66740;DHT22;53653;52.188;8.602;2023-06-10T05:55:50;17.32;71.79
66740;DHT22;53653;52.188;8.602;2023-06-10T05:58:17;17.39;72.30
66740;DHT22;53653;52.188;8.602;2023-06-10T06:00:43;17.65;71.02
66740;DHT22;53653;52.188;8.602;2023-06-10T06:03:09;17.96;70.51
66740;DHT22;53653;52.188;8.602;2023-06-10T06:05:35;17.78;70.40
66740;DHT22;53653;52.188;8.602;2023-06-10T06:08:10;17.74;70.61
66740;DHT22;53653;52.188;8.602;2023-06-10T06:10:35;17.93;70.21
66740;DHT22;53653;52.188;8.602;2023-06-10T06:13:01;17.92;70.17
66740;DHT22;53653;52.188;8.602;2023-06-10T06:15:27;18.22;69.99
66740;DHT22;53653;52.188;8.602;2023-06-10T06:17:53;18.40;69.57
66740;DHT22;53653;52.188;8.602;2023-06-10T06:20:22;18.51;69.15
66740;DHT22;53653;52.188;8.602;2023-06-10T06:22:47;18.61;69.20
66740;DHT22;53653;52.188;8.602;2023-06-10T06:25:13;18.60;68.77
66740;DHT22;53653;52.188;8.602;2023-06-10T06:27:39;18.91;69.32
66740;DHT22;53653;52.188;8.602;2023-06-10T06:30:05;19.08;67.59
66740;DHT22;53653;52.188;8.602;2023-06-10T06:32:31;19.05;67.92
66740;DHT22;53653;52.188;8.602;2023-06-10T06:34:57;19.03;67.93
66740;DHT22;53653;52.188;8.602;2023-06-10T06:37:24;18.94;67.95
66740;DHT22;53653;52.188;8.602;2023-06-10T06:39:57;19.26;68.38
66740;DHT22;53653;52.188;8.602;2023-06-10T06:42:23;19.74;67.12
66740;DHT22;53653;52.188;8.602;2023-06-10T06:45:24;20.09;65.69
66740;DHT22;53653;52.188;8.602;2023-06-10T06:47:49;20.22;64.63
66740;DHT22;53653;52.188;8.602;2023-06-10T06:50:15;19.85;66.37
66740;DHT22;53653;52.188;8.602;2023-06-10T06:52:42;19.89;65.93
66740;DHT22;53653;52.188;8.602;2023-06-10T06:55:07;19.80;66.06
66740;DHT22;53653;52.188;8.602;2023-06-10T06:57:33;19.77;66.69
66740;DHT22;53653;52.188;8.602;2023-06-10T06:59:59;19.74;66.52
66740;DHT22;53653;52.188;8.602;2023-06-10T07:02:24;19.77;66.76
66740;DHT22;53653;52.188;8.602;2023-06-10T07:04:50;19.88;66.35
66740;DHT22;53653;52.188;8.602;2023-06-10T07:07:15;19.61;66.75
66740;DHT22;53653;52.188;8.602;2023-06-10T07:09:41;19.97;65.44
66740;DHT22;53653;52.188;8.602;2023-06-10T07:12:07;20.02;65.19
66740;DHT22;53653;52.188;8.602;2023-06-10T07:14:32;19.81;65.79
66740;DHT22;53653;52.188;8.602;2023-06-10T07:16:58;20.37;65.87
66740;DHT22;53653;52.188;8.602;2023-06-10T07:19:24;20.40;63.87
66740;DHT22;53653;52.188;8.602;2023-06-10T07:21:49;20.53;64.00
66740;DHT22;53653;52.188;8.602;2023-06-10T07:24:15;20.49;62.58
66740;DHT22;53653;52.188;8.602;2023-06-10T07:26:40;20.83;63.01
66740;DHT22;53653;52.188;8.602;2023-06-10T07:29:06;20.86;62.50
66740;DHT22;53653;52.188;8.602;2023-06-10T07:31:31;20.69;62.77
66740;DHT22;53653;52.188;8.602;2023-06-10T07:33:57;20.42;61.84
66740;DHT22;53653;52.188;8.602;2023-06-10T07:36:22;20.66;62.22
66740;DHT22;53653;52.188;8.602;2023-06-10T07:38:48;20.67;61.92
66740;DHT22;53653;52.188;8.602;2023-06-10T07:41:13;20.86;61.36
66740;DHT22;53653;52.188;8.602;2023-06-10T07:43:39;20.76;62.87
66740;DHT22;53653;52.188;8.602;2023-06-10T07:46:05;20.65;61.83
66740;DHT22;53653;52.188;8.602;2023-06-10T07:48:31;20.62;61.84
66740;DHT22;53653;52.188;8.602;2023-06-10T07:50:57;20.90;62.07
66740;DHT22;53653;52.188;8.602;2023-06-10T07:53:22;21.04;61.95
66740;DHT22;53653;52.188;8.602;2023-06-10T07:55:48;21.52;60.86
66740;DHT22;53653;52.188;8.602;2023-06-10T07:58:13;20.84;63.77
66740;DHT22;53653;52.188;8.602;2023-06-10T08:00:38;20.98;62.85
66740;DHT22;53653;52.188;8.602;2023-06-10T08:03:04;21.20;61.55
66740;DHT22;53653;52.188;8.602;2023-06-10T08:05:29;21.51;61.05
66740;DHT22;53653;52.188;8.602;2023-06-10T08:07:56;21.48;61.69
66740;DHT22;53653;52.188;8.602;2023-06-10T08:10:22;21.71;61.04
66740;DHT22;53653;52.188;8.602;2023-06-10T08:12:47;21.34;60.55
66740;DHT22;53653;52.188;8.602;2023-06-10T08:15:13;21.35;60.94
66740;DHT22;53653;52.188;8.602;2023-06-10T08:17:39;21.15;61.92
66740;DHT22;53653;52.188;8.602;2023-06-10T08:20:06;21.38;61.40
66740;DHT22;53653;52.188;8.602;2023-06-10T08:22:31;21.34;62.33
66740;DHT22;53653;52.188;8.602;2023-06-10T08:24:57;21.85;61.86
66740;DHT22;53653;52.188;8.602;2023-06-10T08:27:22;22.04;61.16
66740;DHT22;53653;52.188;8.602;2023-06-10T08:29:48;22.67;60.35
66740;DHT22;53653;52.188;8.602;2023-06-10T08:32:13;22.79;58.27
66740;DHT22;53653;52.188;8.602;2023-06-10T08:34:39;21.99;58.55
66740;DHT22;53653;52.188;8.602;2023-06-10T08:37:04;22.47;58.10
66740;DHT22;53653;52.188;8.602;2023-06-10T08:39:30;22.76;58.33
66740;DHT22;53653;52.188;8.602;2023-06-10T08:44:28;23.03;58.37
66740;DHT22;53653;52.188;8.602;2023-06-10T08:46:55;23.40;57.65
66740;DHT22;53653;52.188;8.602;2023-06-10T08:49:22;23.42;57.14
66740;DHT22;53653;52.188;8.602;2023-06-10T08:51:50;22.78;58.46
66740;DHT22;53653;52.188;8.602;2023-06-10T08:54:20;22.92;58.08
66740;DHT22;53653;52.188;8.602;2023-06-10T08:56:49;23.03;56.66
66740;DHT22;53653;52.188;8.602;2023-06-10T08:59:15;22.65;58.26
66740;DHT22;53653;52.188;8.602;2023-06-10T09:01:43;22.81;57.85
66740;DHT22;53653;52.188;8.602;2023-06-10T09:04:09;23.10;55.77
66740;DHT22;53653;52.188;8.602;2023-06-10T09:06:36;23.26;56.25
66740;DHT22;53653;52.188;8.602;2023-06-10T09:09:02;22.99;56.21
66740;DHT22;53653;52.188;8.602;2023-06-10T09:11:28;23.24;56.53
66740;DHT22;53653;52.188;8.602;2023-06-10T09:13:54;23.36;57.05
66740;DHT22;53653;52.188;8.602;2023-06-10T09:16:19;23.50;56.86
66740;DHT22;53653;52.188;8.602;2023-06-10T09:18:45;23.74;55.19
66740;DHT22;53653;52.188;8.602;2023-06-10T09:21:11;23.27;55.73
66740;DHT22;53653;52.188;8.602;2023-06-10T09:23:37;23.46;55.93
66740;DHT22;53653;52.188;8.602;2023-06-10T09:26:08;23.07;57.04
66740;DHT22;53653;52.188;8.602;2023-06-10T09:28:35;23.37;55.41
66740;DHT22;53653;52.188;8.602;2023-06-10T09:31:03;23.75;54.40
66740;DHT22;53653;52.188;8.602;2023-06-10T09:33:30;23.68;55.39
66740;DHT22;53653;52.188;8.602;2023-06-10T09:35:55;24.05;54.85
66740;DHT22;53653;52.188;8.602;2023-06-10T09:38:30;23.51;55.58
66740;DHT22;53653;52.188;8.602;2023-06-10T09:40:57;23.39;54.99
66740;DHT22;53653;52.188;8.602;2023-06-10T09:43:22;23.50;54.04
66740;DHT22;53653;52.188;8.602;2023-06-10T09:45:51;23.71;54.42
66740;DHT22;53653;52.188;8.602;2023-06-10T09:48:19;23.88;55.11
66740;DHT22;53653;52.188;8.602;2023-06-10T09:50:45;24.08;54.54
66740;DHT22;53653;52.188;8.602;2023-06-10T09:53:11;24.52;53.72
66740;DHT22;53653;52.188;8.602;2023-06-10T09:55:38;24.30;53.70
66740;DHT22;53653;52.188;8.602;2023-06-10T09:58:04;24.36;53.97
66740;DHT22;53653;52.188;8.602;2023-06-10T10:00:32;24.08;54.82
66740;DHT22;53653;52.188;8.602;2023-06-10T10:02:58;24.18;54.71
66740;DHT22;53653;52.188;8.602;2023-06-10T10:05:25;24.36;54.48
66740;DHT22;53653;52.188;8.602;2023-06-10T10:07:51;24.61;53.29
66740;DHT22;53653;52.188;8.602;2023-06-10T10:10:20;24.70;53.62
66740;DHT22;53653;52.188;8.602;2023-06-10T10:12:53;24.26;54.11
66740;DHT22;53653;52.188;8.602;2023-06-10T10:15:21;24.76;54.24
66740;DHT22;53653;52.188;8.602;2023-06-10T10:18:06;25.10;51.34
66740;DHT22;53653;52.188;8.602;2023-06-10T10:20:35;24.84;52.88
66740;DHT22;53653;52.188;8.602;2023-06-10T10:23:03;25.17;51.44
66740;DHT22;53653;52.188;8.602;2023-06-10T10:25:33;24.57;52.87
66740;DHT22;53653;52.188;8.602;2023-06-10T10:28:09;24.91;52.42
66740;DHT22;53653;52.188;8.602;2023-06-10T10:30:40;24.87;52.51
66740;DHT22;53653;52.188;8.602;2023-06-10T10:33:45;25.35;50.78
66740;DHT22;53653;52.188;8.602;2023-06-10T10:36:15;25.45;50.92
66740;DHT22;53653;52.188;8.602;2023-06-10T10:38:41;25.80;49.81
66740;DHT22;53653;52.188;8.602;2023-06-10T10:41:07;25.12;49.49
66740;DHT22;53653;52.188;8.602;2023-06-10T10:43:33;25.35;48.68
66740;DHT22;53653;52.188;8.602;2023-06-10T10:46:00;25.32;50.33
66740;DHT22;53653;52.188;8.602;2023-06-10T10:48:27;25.65;49.76
66740;DHT22;53653;52.188;8.602;2023-06-10T10:50:58;25.92;48.15
66740;DHT22;53653;52.188;8.602;2023-06-10T10:53:24;26.07;47.70
66740;DHT22;53653;52.188;8.602;2023-06-10T10:56:13;25.77;47.76
66740;DHT22;53653;52.188;8.602;2023-06-10T10:58:39;25.73;48.10
66740;DHT22;53653;52.188;8.602;2023-06-10T11:01:12;26.00;46.97
66740;DHT22;53653;52.188;8.602;2023-06-10T11:03:45;26.28;46.89
66740;DHT22;53653;52.188;8.602;2023-06-10T11:06:13;25.87;47.27
66740;DHT22;53653;52.188;8.602;2023-06-10T11:11:23;25.73;47.69
66740;DHT22;53653;52.188;8.602;2023-06-10T11:16:28;25.59;47.86
66740;DHT22;53653;52.188;8.602;2023-06-10T11:18:54;25.90;46.85
66740;DHT22;53653;52.188;8.602;2023-06-10T11:21:21;26.34;46.52
66740;DHT22;53653;52.188;8.602;2023-06-10T11:23:49;26.85;45.00
66740;DHT22;53653;52.188;8.602;2023-06-10T11:29:04;25.85;45.41
66740;DHT22;53653;52.188;8.602;2023-06-10T11:31:42;25.90;45.42
66740;DHT22;53653;52.188;8.602;2023-06-10T11:34:08;26.43;44.74
66740;DHT22;53653;52.188;8.602;2023-06-10T11:36:37;26.59;45.73
66740;DHT22;53653;52.188;8.602;2023-06-10T11:39:06;26.52;44.46
66740;DHT22;53653;52.188;8.602;2023-06-10T11:41:33;26.96;44.18
66740;DHT22;53653;52.188;8.602;2023-06-10T11:44:16;26.89;42.75
66740;DHT22;53653;52.188;8.602;2023-06-10T11:46:42;26.81;42.70
66740;DHT22;53653;52.188;8.602;2023-06-10T11:49:08;26.68;41.61
66740;DHT22;53653;52.188;8.602;2023-06-10T11:51:38;26.28;40.44
66740;DHT22;53653;52.188;8.602;2023-06-10T11:54:04;26.75;41.26
66740;DHT22;53653;52.188;8.602;2023-06-10T11:56:31;26.86;41.19
66740;DHT22;53653;52.188;8.602;2023-06-10T11:59:07;26.67;42.30
66740;DHT22;53653;52.188;8.602;2023-06-10T12:01:34;27.00;42.65
66740;DHT22;53653;52.188;8.602;2023-06-10T12:04:09;26.99;42.75
66740;DHT22;53653;52.188;8.602;2023-06-10T12:09:25;27.31;41.16
66740;DHT22;53653;52.188;8.602;2023-06-10T12:14:57;27.88;40.51
66740;DHT22;53653;52.188;8.602;2023-06-10T12:20:03;27.30;41.93
66740;DHT22;53653;52.188;8.602;2023-06-10T12:25:04;27.60;41.40
66740;DHT22;53653;52.188;8.602;2023-06-10T12:27:33;27.44;41.05
66740;DHT22;53653;52.188;8.602;2023-06-10T12:30:00;27.54;40.83
66740;DHT22;53653;52.188;8.602;2023-06-10T12:32:42;26.75;43.46
66740;DHT22;53653;52.188;8.602;2023-06-10T12:35:09;27.54;42.90
66740;DHT22;53653;52.188;8.602;2023-06-10T12:37:35;27.47;42.52
66740;DHT22;53653;52.188;8.602;2023-06-10T12:40:03;27.80;42.19
66740;DHT22;53653;52.188;8.602;2023-06-10T12:42:30;28.35;41.38
66740;DHT22;53653;52.188;8.602;2023-06-10T12:44:56;28.13;42.02
66740;DHT22;53653;52.188;8.602;2023-06-10T12:47:32;28.16;42.59
66740;DHT22;53653;52.188;8.602;2023-06-10T12:50:00;28.05;43.19
66740;DHT22;53653;52.188;8.602;2023-06-10T12:52:26;28.26;41.59
66740;DHT22;53653;52.188;8.602;2023-06-10T12:54:53;27.82;38.58
66740;DHT22;53653;52.188;8.602;2023-06-10T12:57:20;27.94;38.19
66740;DHT22;53653;52.188;8.602;2023-06-10T12:59:46;27.62;39.37
66740;DHT22;53653;52.188;8.602;2023-06-10T13:02:17;27.47;39.87
66740;DHT22;53653;52.188;8.602;2023-06-10T13:04:47;27.41;41.52
66740;DHT22;53653;52.188;8.602;2023-06-10T13:07:13;27.50;41.57
66740;DHT22;53653;52.188;8.602;2023-06-10T13:09:38;27.61;42.17
66740;DHT22;53653;52.188;8.602;2023-06-10T13:12:05;27.47;42.79
66740;DHT22;53653;52.188;8.602;2023-06-10T13:14:31;27.76;42.55
66740;DHT22;53653;52.188;8.602;2023-06-10T13:16:57;27.91;42.93
66740;DHT22;53653;52.188;8.602;2023-06-10T13:19:22;27.74;43.26
66740;DHT22;53653;52.188;8.602;2023-06-10T13:21:48;27.55;43.73
66740;DHT22;53653;52.188;8.602;2023-06-10T13:24:14;27.81;43.75
66740;DHT22;53653;52.188;8.602;2023-06-10T13:26:39;27.82;43.71
66740;DHT22;53653;52.188;8.602;2023-06-10T13:29:05;28.05;43.82
66740;DHT22;53653;52.188;8.602;2023-06-10T13:31:31;28.15;43.91
66740;DHT22;53653;52.188;8.602;2023-06-10T13:33:57;27.98;44.10
66740;DHT22;53653;52.188;8.602;2023-06-10T13:36:23;27.89;44.12
66740;DHT22;53653;52.188;8.602;2023-06-10T13:38:49;28.10;44.30
66740;DHT22;53653;52.188;8.602;2023-06-10T13:41:14;27.94;44.56
66740;DHT22;53653;52.188;8.602;2023-06-10T13:43:40;27.70;44.57
66740;DHT22;53653;52.188;8.602;2023-06-10T13:46:05;27.62;45.06
66740;DHT22;53653;52.188;8.602;2023-06-10T13:48:31;27.91;45.07
66740;DHT22;53653;52.188;8.602;2023-06-10T13:50:58;28.12;44.77
66740;DHT22;53653;52.188;8.602;2023-06-10T13:53:25;28.13;44.50
66740;DHT22;53653;52.188;8.602;2023-06-10T13:55:51;28.25;44.76
66740;DHT22;53653;52.188;8.602;2023-06-10T13:58:17;28.08;44.04
66740;DHT22;53653;52.188;8.602;2023-06-10T14:00:42;28.23;44.47
66740;DHT22;53653;52.188;8.602;2023-06-10T14:03:08;28.22;44.29
66740;DHT22;53653;52.188;8.602;2023-06-10T14:05:33;28.33;44.41
66740;DHT22;53653;52.188;8.602;2023-06-10T14:07:59;28.53;43.92
66740;DHT22;53653;52.188;8.602;2023-06-10T14:10:25;28.37;44.47
66740;DHT22;53653;52.188;8.602;2023-06-10T14:12:51;28.13;45.33
66740;DHT22;53653;52.188;8.602;2023-06-10T14:15:16;28.31;45.42
66740;DHT22;53653;52.188;8.602;2023-06-10T14:17:42;28.43;44.66
66740;DHT22;53653;52.188;8.602;2023-06-10T14:20:08;28.43;44.46
66740;DHT22;53653;52.188;8.602;2023-06-10T14:22:34;28.22;44.65
66740;DHT22;53653;52.188;8.602;2023-06-10T14:24:59;28.53;44.06
66740;DHT22;53653;52.188;8.602;2023-06-10T14:27:25;28.01;45.25
66740;DHT22;53653;52.188;8.602;2023-06-10T14:29:50;28.22;44.90
66740;DHT22;53653;52.188;8.602;2023-06-10T14:32:16;28.50;44.76
66740;DHT22;53653;52.188;8.602;2023-06-10T14:34:42;28.55;44.83
66740;DHT22;53653;52.188;8.602;2023-06-10T14:37:10;28.25;45.17
66740;DHT22;53653;52.188;8.602;2023-06-10T14:39:35;28.37;45.42
66740;DHT22;53653;52.188;8.602;2023-06-10T14:42:01;28.33;45.31
66740;DHT22;53653;52.188;8.602;2023-06-10T14:44:27;28.50;44.80
66740;DHT22;53653;52.188;8.602;2023-06-10T14:46:52;28.53;44.95
66740;DHT22;53653;52.188;8.602;2023-06-10T14:49:18;28.43;45.46
66740;DHT22;53653;52.188;8.602;2023-06-10T14:51:44;28.23;45.10
66740;DHT22;53653;52.188;8.602;2023-06-10T14:54:10;27.95;45.96
66740;DHT22;53653;52.188;8.602;2023-06-10T14:56:36;28.26;45.44
66740;DHT22;53653;52.188;8.602;2023-06-10T14:59:01;28.53;45.29
66740;DHT22;53653;52.188;8.602;2023-06-10T15:01:27;28.74;44.97
66740;DHT22;53653;52.188;8.602;2023-06-10T15:03:53;28.32;44.78
66740;DHT22;53653;52.188;8.602;2023-06-10T15:06:18;28.12;45.11
66740;DHT22;53653;52.188;8.602;2023-06-10T15:08:46;28.56;44.81
66740;DHT22;53653;52.188;8.602;2023-06-10T15:11:14;28.81;44.58
66740;DHT22;53653;52.188;8.602;2023-06-10T15:13:40;28.61;45.79
66740;DHT22;53653;52.188;8.602;2023-06-10T15:16:06;28.35;46.09
66740;DHT22;53653;52.188;8.602;2023-06-10T15:18:32;28.26;45.22
66740;DHT22;53653;52.188;8.602;2023-06-10T15:20:58;28.59;44.89
66740;DHT22;53653;52.188;8.602;2023-06-10T15:23:23;28.59;45.21
66740;DHT22;53653;52.188;8.602;2023-06-10T15:25:49;28.33;44.97
66740;DHT22;53653;52.188;8.602;2023-06-10T15:28:15;28.68;45.49
66740;DHT22;53653;52.188;8.602;2023-06-10T15:30:40;28.45;45.51
66740;DHT22;53653;52.188;8.602;2023-06-10T15:33:06;28.26;46.31
66740;DHT22;53653;52.188;8.602;2023-06-10T15:35:32;28.29;45.98
66740;DHT22;53653;52.188;8.602;2023-06-10T15:37:58;28.35;45.96
66740;DHT22;53653;52.188;8.602;2023-06-10T15:40:24;28.43;44.95
66740;DHT22;53653;52.188;8.602;2023-06-10T15:42:49;28.43;45.10
66740;DHT22;53653;52.188;8.602;2023-06-10T15:45:15;28.36;45.98
66740;DHT22;53653;52.188;8.602;2023-06-10T15:47:41;28.28;46.15
66740;DHT22;53653;52.188;8.602;2023-06-10T15:50:08;28.09;46.23
66740;DHT22;53653;52.188;8.602;2023-06-10T15:52:34;28.31;46.41
66740;DHT22;53653;52.188;8.602;2023-06-10T15:55:00;27.94;45.75
66740;DHT22;53653;52.188;8.602;2023-06-10T15:57:26;28.13;46.17